Time;durP1;ratioP1;P1;durP2;ratioP2;P2;SDS_P1;SDS_P2;PMS_P1;PMS_P2;Temp;Humidity;BMP_temperature;BMP_pressure;BME280_temperature;BME280_humidity;BME280_pressure;Samples;Min_cycle;Max_cycle;Signal;HPM_P1;HPM_P2
2021/06/09 00:01:01;;;;;;;6.12;5.78;;;;;;;17.58;71.15;99864.06;1709460;82;21137;-74
2021/06/09 00:03:27;;;;;;;;;;;;;;;17.57;71.35;99858.38;1705763;82;21076;-74
2021/06/09 00:05:53;;;;;;;7.35;6.78;;;;;;;17.55;71.60;99859.15;1710374;82;20175;-74
2021/06/09 00:08:19;;;;;;;5.00;4.70;;;;;;;17.48;71.96;99854.75;1704396;83;20979;-74
2021/06/09 00:10:50;;;;;;;5.03;4.65;;;;;;;17.51;72.09;99854.78;1704401;83;21025;-75
2021/06/09 00:13:17;;;;;;;6.15;5.55;;;;;;;17.47;72.35;99851.76;1706418;83;21002;-74
2021/06/09 00:15:44;;;;;;;5.78;5.37;;;;;;;17.42;72.51;99849.52;1696936;83;21073;-73
2021/06/09 00:18:11;;;;;;;5.12;4.72;;;;;;;17.37;72.57;99850.27;1697437;83;20999;-75
2021/06/09 00:20:38;;;;;;;5.95;4.70;;;;;;;17.37;72.61;99848.92;1679107;83;21066;-75
2021/06/09 00:23:04;;;;;;;3.75;3.47;;;;;;;17.39;72.30;99850.02;1722556;81;21008;-74
2021/06/09 00:25:31;;;;;;;4.80;4.40;;;;;;;17.39;72.33;99847.33;1717933;81;21064;-75
2021/06/09 00:27:58;;;;;;;4.15;3.85;;;;;;;17.39;72.21;99838.70;1722535;82;21070;-73
2021/06/09 00:30:29;;;;;;;4.75;3.30;;;;;;;17.40;72.20;99843.02;1720181;81;21066;-74
2021/06/09 00:32:58;;;;;;;3.22;3.10;;;;;;;17.41;72.08;99843.31;1727251;81;20976;-73
2021/06/09 00:35:25;;;;;;;3.92;3.75;;;;;;;17.38;71.83;99835.72;1713548;82;21534;-74
2021/06/09 00:37:51;;;;;;;3.75;3.42;;;;;;;17.38;71.88;99838.41;1713533;81;21014;-73
2021/06/09 00:40:18;;;;;;;2.95;2.77;;;;;;;17.40;71.68;99834.94;1709183;81;21059;-73
2021/06/09 00:43:04;;;;;;;;;;;;;;;17.43;71.52;99833.65;1717950;81;21046;-74
2021/06/09 00:45:31;;;;;;;3.10;2.90;;;;;;;17.44;71.52;99831.22;1732599;81;20144;-73
2021/06/09 00:47:59;;;;;;;2.80;2.65;;;;;;;17.38;71.69;99830.33;1729714;81;21611;-73
2021/06/09 00:50:25;;;;;;;4.45;3.02;;;;;;;17.40;71.77;99824.70;1708238;81;21063;-72
2021/06/09 00:52:51;;;;;;;4.10;3.65;;;;;;;17.37;71.69;99823.86;1716219;82;21092;-74
2021/06/09 00:55:18;;;;;;;5.55;3.40;;;;;;;17.29;71.93;99815.12;1720366;81;21149;-74
2021/06/09 00:57:46;;;;;;;3.35;3.05;;;;;;;17.28;71.83;99813.48;1705461;83;21656;-73
2021/06/09 01:00:13;;;;;;;2.90;2.70;;;;;;;17.33;71.65;99820.84;1701675;82;21582;-73
2021/06/09 01:02:39;;;;;;;3.52;3.17;;;;;;;17.35;71.57;99825.96;1715598;81;21026;-74
2021/06/09 01:05:08;;;;;;;3.20;3.00;;;;;;;17.29;71.26;99816.47;1722802;81;21026;-74
2021/06/09 01:07:38;;;;;;;3.15;2.90;;;;;;;17.26;71.44;99819.65;1715597;81;21452;-74
2021/06/09 01:10:07;;;;;;;2.58;2.47;;;;;;;17.23;71.54;99816.08;1714767;81;21053;-73
2021/06/09 01:12:34;;;;;;;2.05;1.95;;;;;;;17.24;71.40;99815.04;1713786;81;21096;-74
2021/06/09 01:15:01;;;;;;;2.77;2.58;;;;;;;17.28;71.46;99814.83;1721141;81;21038;-73
2021/06/09 01:17:27;;;;;;;3.15;2.90;;;;;;;17.29;71.32;99816.47;1724729;82;21029;-74
2021/06/09 01:19:54;;;;;;;2.90;2.77;;;;;;;17.26;71.32;99818.30;1718350;81;21041;-74
2021/06/09 01:22:22;;;;;;;3.27;3.08;;;;;;;17.21;71.43;99819.55;1717534;81;21037;-73
2021/06/09 01:24:49;;;;;;;3.92;3.62;;;;;;;17.15;71.63;99816.50;1727396;81;21066;-74
2021/06/09 01:27:18;;;;;;;3.72;3.52;;;;;;;17.09;71.90;99823.68;1694892;83;21050;-74
2021/06/09 01:29:45;;;;;;;3.72;3.52;;;;;;;17.06;72.02;99835.47;1725983;81;21027;-72
2021/06/09 01:32:12;;;;;;;3.22;3.02;;;;;;;17.06;72.02;99835.47;1717036;82;21654;-72
2021/06/09 01:34:39;;;;;;;4.50;2.90;;;;;;;17.05;72.21;99841.39;1713254;82;20982;-73
2021/06/09 01:37:05;;;;;;;3.58;3.40;;;;;;;17.06;72.29;99843.55;1712027;81;21152;-71
2021/06/09 01:39:32;;;;;;;4.45;4.10;;;;;;;17.03;72.31;99834.63;1714195;82;21057;-72
2021/06/09 01:41:58;;;;;;;4.72;4.42;;;;;;;16.92;72.43;99839.81;1723227;81;21098;-72
2021/06/09 01:44:24;;;;;;;4.50;4.20;;;;;;;16.92;72.43;99839.81;1724714;81;21002;-73
2021/06/09 01:46:52;;;;;;;3.98;3.77;;;;;;;16.88;72.72;99845.94;1710177;82;21022;-73
2021/06/09 01:49:19;;;;;;;3.83;3.52;;;;;;;16.89;72.85;99843.52;1701696;82;21152;-73
2021/06/09 01:51:45;;;;;;;4.53;4.33;;;;;;;16.92;72.88;99842.51;1707419;81;21037;-74
2021/06/09 01:54:12;;;;;;;4.47;3.70;;;;;;;16.92;72.92;99847.08;1715214;81;21101;-73
2021/06/09 01:56:39;;;;;;;4.08;3.87;;;;;;;16.88;72.99;99838.67;1682230;83;21180;-74
2021/06/09 01:59:15;;;;;;;3.92;3.80;;;;;;;16.86;73.08;99848.06;1689126;83;21045;-73
2021/06/09 02:01:42;;;;;;;4.47;4.17;;;;;;;16.79;73.44;99837.39;1681351;82;21052;-73
2021/06/09 02:04:12;;;;;;;4.33;3.75;;;;;;;16.74;73.52;99842.17;1682201;84;21099;-72
2021/06/09 02:06:41;;;;;;;3.35;3.25;;;;;;;16.72;73.69;99836.19;1678236;84;21027;-73
2021/06/09 02:09:10;;;;;;;5.15;3.58;;;;;;;16.78;73.71;99837.63;1673619;84;21098;-72
2021/06/09 02:11:42;;;;;;;4.12;3.80;;;;;;;16.83;73.80;99842.61;1673609;84;21186;-71
2021/06/09 02:14:10;;;;;;;3.17;3.05;;;;;;;16.83;73.80;99842.61;1663546;84;21136;-74
2021/06/09 02:16:39;;;;;;;3.85;3.65;;;;;;;17.11;73.70;99843.64;1660893;84;21073;-73
2021/06/09 02:19:07;;;;;;;4.05;3.70;;;;;;;17.11;73.70;99843.64;1675479;84;21583;-73
2021/06/09 02:21:39;;;;;;;3.70;3.60;;;;;;;17.42;73.06;99845.47;1671616;84;21075;-73
2021/06/09 02:24:06;;;;;;;3.22;3.02;;;;;;;17.67;72.23;99848.56;1683873;83;21172;-72
2021/06/09 02:26:36;;;;;;;3.75;3.55;;;;;;;17.98;71.42;99849.02;1696857;83;21227;-75
2021/06/09 02:29:05;;;;;;;4.10;3.75;;;;;;;18.29;70.21;99842.15;1683416;84;21540;-73
2021/06/09 02:31:32;;;;;;;3.12;2.72;;;;;;;18.60;69.01;99841.68;1687304;84;21007;-74
2021/06/09 02:34:01;;;;;;;3.92;3.62;;;;;;;18.97;68.00;99842.36;1679098;83;21172;-74
2021/06/09 02:36:28;;;;;;;4.03;3.72;;;;;;;19.32;66.67;99839.67;1690891;83;21096;-74
2021/06/09 02:38:57;;;;;;;3.70;3.40;;;;;;;19.52;65.64;99837.67;1683654;83;21131;-74
2021/06/09 02:41:24;;;;;;;4.08;3.77;;;;;;;19.73;64.96;99834.59;1709393;83;21125;-73
2021/06/09 02:43:51;;;;;;;4.28;3.83;;;;;;;19.99;64.20;99829.59;1678262;83;21079;-73
2021/06/09 02:46:38;;;;;;;4.40;3.92;;;;;;;20.31;63.26;99832.70;1710660;82;21118;-73
2021/06/09 02:49:09;;;;;;;3.70;3.47;;;;;;;20.61;61.83;99836.07;1716943;81;21082;-73
2021/06/09 02:51:52;;;;;;;4.45;3.37;;;;;;;20.87;60.66;99835.30;1708220;83;21125;-74
2021/06/09 02:54:41;;;;;;;3.55;3.35;;;;;;;21.09;60.61;99832.34;1692703;83;21057;-73
2021/06/09 02:57:35;;;;;;;5.78;4.55;;;;;;;21.34;58.79;99837.78;1694939;83;21102;-71
2021/06/09 03:00:16;;;;;;;4.55;4.05;;;;;;;21.52;58.33;99837.78;1674073;84;21023;-73
2021/06/09 03:03:19;;;;;;;4.40;3.98;;;;;;;21.67;56.96;99838.85;1683672;84;21105;-72
2021/06/09 03:06:03;;;;;;;4.22;4.03;;;;;;;21.72;57.38;99838.85;1689226;83;21018;-74
2021/06/09 03:08:50;;;;;;;3.30;3.17;;;;;;;22.10;56.92;99842.00;1681214;83;21069;-74
2021/06/09 03:11:30;;;;;;;4.42;3.55;;;;;;;22.44;55.14;99842.70;1681426;84;21105;-75
2021/06/09 03:14:28;;;;;;;4.17;3.87;;;;;;;22.61;55.41;99839.06;1652279;85;21046;-74
2021/06/09 03:16:53;;;;;;;3.80;3.52;;;;;;;22.76;54.72;99840.08;1679319;83;21562;-74
2021/06/09 03:19:23;;;;;;;4.22;3.92;;;;;;;22.83;54.75;99835.95;1684675;83;21065;-75
2021/06/09 03:22:04;;;;;;;3.72;3.55;;;;;;;22.95;54.23;99841.02;1687553;83;21044;-75
2021/06/09 03:24:39;;;;;;;3.98;3.55;;;;;;;23.10;54.26;99845.02;1686605;83;21102;-74
2021/06/09 03:27:32;;;;;;;4.60;3.83;;;;;;;23.19;53.75;99840.31;1677565;84;21129;-76
2021/06/09 03:30:09;;;;;;;3.70;3.40;;;;;;;23.32;53.29;99840.48;1649695;85;21076;-75
2021/06/09 03:32:49;;;;;;;3.95;3.75;;;;;;;23.42;52.87;99850.46;1687986;83;21034;-74
2021/06/09 03:35:24;;;;;;;4.15;3.95;;;;;;;23.24;53.41;99847.87;1704327;83;21571;-74
2021/06/09 03:37:54;;;;;;;3.67;3.47;;;;;;;23.21;53.51;99851.19;1696715;83;21073;-75
2021/06/09 03:40:31;;;;;;;3.80;3.50;;;;;;;23.26;53.74;99855.23;1690552;83;21045;-79
2021/06/09 03:43:01;;;;;;;3.67;3.58;;;;;;;23.34;53.28;99848.37;1670354;83;21072;-73
2021/06/09 03:45:31;;;;;;;4.30;3.35;;;;;;;23.31;53.16;99853.81;1662579;84;21119;-73
2021/06/09 03:48:00;;;;;;;4.42;4.00;;;;;;;23.24;53.62;99851.95;1665634;83;21135;-76
2021/06/09 03:50:28;;;;;;;3.40;3.12;;;;;;;23.28;53.77;99849.48;1651306;84;21066;-72
2021/06/09 03:53:02;;;;;;;4.25;3.83;;;;;;;23.42;53.89;99851.82;1658420;84;21152;-73
2021/06/09 03:55:25;;;;;;;3.45;3.25;;;;;;;23.82;52.71;99853.10;1670281;83;21777;-73
2021/06/09 04:01:20;;;;;;;3.90;3.60;;;;;;;24.10;51.92;99861.76;1766966;78;22426;-74
2021/06/09 04:03:48;;;;;;;4.30;4.00;;;;;;;24.36;51.38;99851.13;1734818;81;21522;-74
2021/06/09 04:06:18;;;;;;;4.17;3.87;;;;;;;24.35;50.62;99854.94;1711093;83;21000;-74
2021/06/09 04:08:47;;;;;;;4.45;4.05;;;;;;;24.08;50.99;99860.44;1731305;81;21014;-74
2021/06/09 04:11:17;;;;;;;3.77;3.42;;;;;;;24.00;51.34;99863.81;1726543;82;21052;-74
2021/06/09 04:13:47;;;;;;;5.60;4.12;;;;;;;23.85;51.63;99856.06;1735597;81;21531;-74
2021/06/09 04:16:17;;;;;;;3.75;3.45;;;;;;;24.01;52.04;99870.30;1705707;83;20944;-73
2021/06/09 04:18:47;;;;;;;4.22;3.95;;;;;;;24.26;51.00;99868.38;1734611;81;21916;-74
2021/06/09 04:21:15;;;;;;;4.20;3.90;;;;;;;24.21;51.31;99868.46;1688129;83;21054;-85
2021/06/09 04:23:42;;;;;;;4.17;4.00;;;;;;;23.91;52.00;99882.67;1679054;84;21104;-85
2021/06/09 04:26:13;;;;;;;4.50;4.30;;;;;;;23.69;52.85;99878.48;1687565;84;21121;-81
2021/06/09 04:28:42;;;;;;;3.47;3.17;;;;;;;23.55;53.32;99877.55;1692190;84;21053;-83
2021/06/09 04:31:14;;;;;;;4.87;4.30;;;;;;;23.56;53.20;99871.55;1683574;84;21052;-84
2021/06/09 04:33:44;;;;;;;4.60;4.33;;;;;;;23.62;53.21;99869.04;1671038;83;21549;-84
2021/06/09 04:36:17;;;;;;;4.62;4.30;;;;;;;23.65;53.22;99869.28;1691115;83;21333;-83
2021/06/09 04:38:44;;;;;;;5.53;5.00;;;;;;;23.86;53.32;99871.83;1697493;82;21064;-83
2021/06/09 04:41:10;;;;;;;4.60;4.40;;;;;;;24.14;51.86;99867.99;1702346;83;21018;-82
2021/06/09 04:43:36;;;;;;;4.65;4.25;;;;;;;24.18;51.68;99867.11;1690665;83;21579;-84
2021/06/09 04:46:07;;;;;;;7.22;4.50;;;;;;;24.24;51.55;99864.61;1689633;83;21027;-85
2021/06/09 04:48:34;;;;;;;4.33;4.12;;;;;;;24.31;51.60;99863.44;1685188;84;21146;-84
2021/06/09 04:51:04;;;;;;;4.37;3.98;;;;;;;24.51;50.95;99859.09;1673147;83;21109;-84
2021/06/09 04:53:31;;;;;;;4.40;4.10;;;;;;;24.70;50.60;99859.69;1663368;84;21130;-80
2021/06/09 04:55:57;;;;;;;4.28;3.87;;;;;;;24.84;50.26;99854.55;1674013;84;21082;-84
2021/06/09 04:58:25;;;;;;;3.80;3.60;;;;;;;24.82;50.29;99851.87;1689182;83;21074;-81
2021/06/09 05:00:52;;;;;;;5.20;3.33;;;;;;;24.63;50.14;99851.88;1685639;83;21066;-81
2021/06/09 05:03:19;;;;;;;3.42;3.15;;;;;;;24.52;49.98;99849.83;1689031;83;21042;-79
2021/06/09 05:05:49;;;;;;;3.58;3.47;;;;;;;24.46;50.03;99859.15;1667872;84;21195;-82
2021/06/09 05:08:14;;;;;;;4.05;3.85;;;;;;;24.55;49.70;99859.35;1687679;83;21275;-80
2021/06/09 05:10:42;;;;;;;4.12;3.83;;;;;;;24.59;50.24;99857.09;1680829;83;21069;-81
2021/06/09 05:13:25;;;;;;;3.58;3.47;;;;;;;24.59;50.44;99861.74;1677099;81;21088;-80
2021/06/09 05:15:56;;;;;;;4.12;3.50;;;;;;;24.67;49.56;99868.69;1662458;84;21066;-83
2021/06/09 05:18:26;;;;;;;3.95;3.65;;;;;;;24.79;49.90;99865.55;1648097;85;22275;-80
2021/06/09 05:20:54;;;;;;;3.15;2.95;;;;;;;24.92;49.97;99865.36;1644727;86;21110;-82
2021/06/09 05:23:27;;;;;;;3.83;3.60;;;;;;;25.08;49.55;99866.48;1648152;84;21136;-82
2021/06/09 05:25:55;;;;;;;3.62;3.40;;;;;;;25.38;48.63;99866.02;1683472;84;20995;-81
2021/06/09 05:28:26;;;;;;;3.58;3.10;;;;;;;25.50;47.94;99868.82;1682715;83;22298;-81
2021/06/09 05:30:55;;;;;;;4.92;3.00;;;;;;;25.38;48.07;99877.48;1679387;83;21014;-83
2021/06/09 05:33:27;;;;;;;2.90;2.72;;;;;;;24.98;48.60;99870.19;1679321;84;21117;-83
2021/06/09 05:35:57;;;;;;;3.70;3.50;;;;;;;24.66;49.92;99866.28;1680587;83;21073;-81
2021/06/09 05:38:25;;;;;;;4.28;4.08;;;;;;;24.64;49.93;99869.85;1661414;84;21164;-81
2021/06/09 05:40:58;;;;;;;3.45;3.20;;;;;;;24.55;50.44;99871.61;1675516;84;21081;-81
2021/06/09 05:43:27;;;;;;;3.85;2.72;;;;;;;24.63;50.28;99866.30;1671709;84;21044;-81
2021/06/09 05:45:56;;;;;;;3.37;3.15;;;;;;;24.74;49.35;99868.90;1690750;83;21112;-81
2021/06/09 05:48:23;;;;;;;3.10;2.92;;;;;;;24.82;48.71;99875.84;1670329;83;21128;-82
2021/06/09 05:50:54;;;;;;;2.92;2.80;;;;;;;24.83;49.24;99865.77;1666058;84;21105;-82
2021/06/09 05:53:31;;;;;;;3.02;2.90;;;;;;;24.75;49.55;99873.23;1660833;84;21164;-83
2021/06/09 05:55:57;;;;;;;3.52;3.33;;;;;;;24.83;49.49;99873.95;1677097;83;21025;-87
2021/06/09 05:58:25;;;;;;;3.12;2.95;;;;;;;25.01;49.58;99870.38;1670571;82;21006;-82
2021/06/09 06:01:00;;;;;;;8.25;2.85;;;;;;;25.31;48.63;99871.03;1698745;82;21086;-80
2021/06/09 06:03:28;;;;;;;5.47;3.95;;;;;;;25.36;48.75;99872.33;1660484;86;21069;-82
2021/06/09 06:06:08;;;;;;;3.52;3.33;;;;;;;24.95;49.21;99789.78;1657201;85;21120;-82
2021/06/09 06:08:39;;;;;;;3.70;3.50;;;;;;;25.54;48.71;99869.84;1657837;85;21050;-81
2021/06/09 06:11:12;;;;;;;4.55;3.65;;;;;;;25.43;50.09;99870.03;1650357;85;21101;-82
2021/06/09 06:13:41;;;;;;;4.97;3.70;;;;;;;25.58;50.18;99867.59;1642944;85;21097;-84
2021/06/09 06:16:07;;;;;;;3.55;3.25;;;;;;;25.52;49.15;99869.33;1650346;85;21678;-82
2021/06/09 06:18:38;;;;;;;3.75;3.45;;;;;;;25.25;48.52;99869.50;1661839;85;20990;-83
2021/06/09 06:21:07;;;;;;;2.85;2.67;;;;;;;25.28;48.70;99868.09;1651292;84;21064;-83
2021/06/09 06:23:35;;;;;;;3.37;3.17;;;;;;;25.50;48.26;99860.07;1658831;84;21147;-85
2021/06/09 06:26:03;;;;;;;4.53;4.12;;;;;;;25.58;48.17;99865.39;1671728;83;21059;-81
2021/06/09 06:28:32;;;;;;;3.92;3.65;;;;;;;25.66;47.50;99861.99;1677067;83;21894;-83
2021/06/09 06:31:01;;;;;;;2.35;2.15;;;;;;;25.68;47.52;99871.25;1685863;83;21098;-84
2021/06/09 06:33:27;;;;;;;4.87;2.65;;;;;;;25.71;46.44;99870.63;1674838;84;21158;-85
2021/06/09 06:36:00;;;;;;;3.33;3.02;;;;;;;25.58;46.29;99864.03;1681278;83;21114;-83
2021/06/09 06:38:27;;;;;;;2.95;2.83;;;;;;;25.40;47.15;99869.25;1690363;84;21039;-81
2021/06/09 06:40:54;;;;;;;4.45;3.45;;;;;;;25.43;50.20;99864.56;1676439;84;21116;-81
2021/06/09 06:43:22;;;;;;;3.55;3.45;;;;;;;25.54;48.21;99872.03;1690512;81;21120;-83
2021/06/09 06:45:48;;;;;;;3.55;3.22;;;;;;;25.63;48.22;99872.13;1682361;83;21018;-83
2021/06/09 06:48:17;;;;;;;3.72;3.52;;;;;;;25.65;48.89;99869.91;1680826;83;21061;-88
2021/06/09 06:50:44;;;;;;;3.05;2.95;;;;;;;25.77;48.68;99872.98;1678130;83;21160;-85
2021/06/09 06:53:11;;;;;;;3.85;3.58;;;;;;;25.96;47.35;99866.09;1671411;83;21042;-86
2021/06/09 06:55:38;;;;;;;2.92;2.83;;;;;;;26.14;46.84;99864.36;1686807;83;21033;-85
2021/06/09 06:58:06;;;;;;;2.90;2.80;;;;;;;26.23;46.89;99871.30;1674602;83;21098;-87
2021/06/09 07:00:33;;;;;;;2.17;2.10;;;;;;;26.28;46.53;99870.41;1638989;84;21424;-87
2021/06/09 07:03:02;;;;;;;1.87;1.85;;;;;;;26.21;46.03;99858.51;1676378;84;21054;-87
2021/06/09 07:05:33;;;;;;;3.02;2.35;;;;;;;26.23;45.74;99863.11;1677603;83;21128;-89
2021/06/09 07:08:03;;;;;;;3.42;2.45;;;;;;;26.37;44.90;99864.45;1674124;84;21081;-83
2021/06/09 07:10:31;;;;;;;2.35;2.17;;;;;;;26.23;45.14;99860.38;1684966;83;21069;-83
2021/06/09 07:12:59;;;;;;;2.50;2.40;;;;;;;26.18;45.64;99868.66;1625793;83;21121;-83
2021/06/09 07:15:27;;;;;;;2.62;2.52;;;;;;;26.20;45.50;99863.70;1651072;85;22176;-82
2021/06/09 07:17:57;;;;;;;5.03;2.12;;;;;;;26.20;44.52;99867.80;1653232;85;21160;-82
2021/06/09 07:20:28;;;;;;;2.10;1.98;;;;;;;25.94;45.21;99864.23;1644500;85;21064;-82
2021/06/09 07:22:58;;;;;;;2.25;2.05;;;;;;;25.66;45.21;99863.36;1655950;84;21070;-83
2021/06/09 07:25:31;;;;;;;3.87;2.85;;;;;;;25.55;44.79;99866.02;1677475;83;21126;-82
2021/06/09 07:28:04;;;;;;;2.00;1.90;;;;;;;25.36;45.30;99864.70;1676066;84;21316;-84
2021/06/09 07:30:39;;;;;;;2.83;2.27;;;;;;;25.25;46.64;99862.69;1680276;83;21115;-84
2021/06/09 07:33:07;;;;;;;1.72;1.62;;;;;;;25.33;46.23;99866.66;1678965;83;21138;-88
2021/06/09 07:35:34;;;;;;;3.20;2.55;;;;;;;25.40;45.33;99871.17;1686075;84;21043;-85
2021/06/09 07:38:08;;;;;;;3.22;1.75;;;;;;;25.29;45.96;99863.70;1683658;84;21083;-82
2021/06/09 07:40:42;;;;;;;5.30;2.37;;;;;;;25.27;46.68;99866.48;1688706;83;21061;-85
2021/06/09 07:43:14;;;;;;;2.00;1.90;;;;;;;25.42;46.49;99864.86;1675796;83;21066;-85
2021/06/09 07:45:42;;;;;;;1.67;1.67;;;;;;;25.36;46.60;99860.61;1680517;83;21164;-85
2021/06/09 07:48:09;;;;;;;2.22;1.40;;;;;;;25.32;46.37;99863.69;1682943;83;21696;-83
2021/06/09 07:50:52;;;;;;;2.65;2.52;;;;;;;25.27;47.11;99861.83;1681701;83;21064;-84
2021/06/09 07:53:20;;;;;;;2.12;2.02;;;;;;;25.25;47.66;99862.13;1680865;83;21068;-85
2021/06/09 07:55:49;;;;;;;2.25;2.08;;;;;;;25.30;46.28;99865.34;1680950;83;21091;-84
2021/06/09 07:58:19;;;;;;;3.10;1.70;;;;;;;25.23;46.27;99860.81;1699704;82;21054;-82
2021/06/09 08:00:47;;;;;;;1.45;1.45;;;;;;;25.08;46.75;99856.95;1688812;82;21198;-86
2021/06/09 08:03:15;;;;;;;3.70;1.32;;;;;;;25.02;46.98;99861.11;1632498;85;21124;-86
2021/06/09 08:05:43;;;;;;;3.10;1.55;;;;;;;25.06;46.61;99866.22;1634943;86;21077;-87
2021/06/09 08:08:14;;;;;;;1.47;1.37;;;;;;;25.03;46.13;99861.91;1628064;86;22287;-85
2021/06/09 08:10:41;;;;;;;1.40;1.30;;;;;;;24.88;47.21;99869.76;1606491;87;21062;-86
2021/06/09 08:13:11;;;;;;;3.08;0.90;;;;;;;24.82;46.89;99877.77;1683614;83;21088;-88
2021/06/09 08:15:41;;;;;;;1.35;1.25;;;;;;;24.79;47.29;99871.53;1685373;84;21060;-90
2021/06/09 08:18:09;;;;;;;1.67;1.07;;;;;;;24.77;47.64;99868.29;1681816;84;21096;-87
2021/06/09 08:20:41;;;;;;;0.95;0.95;;;;;;;24.79;47.24;99872.89;1687312;83;21204;-88
2021/06/09 08:23:09;;;;;;;0.82;0.75;;;;;;;24.82;47.27;99866.30;1681048;84;21619;-90
2021/06/09 08:25:37;;;;;;;1.52;1.35;;;;;;;24.83;46.84;99868.49;1684193;83;21048;-88
2021/06/09 08:28:07;;;;;;;1.07;0.80;;;;;;;24.73;45.83;99874.88;1678961;83;21119;-84
2021/06/09 08:30:33;;;;;;;10.53;1.42;;;;;;;24.52;46.85;99872.19;1688307;83;21120;-83
2021/06/09 08:32:59;;;;;;;1.72;1.62;;;;;;;24.42;47.07;99874.47;1712568;83;21117;-84
2021/06/09 08:35:28;;;;;;;1.40;1.30;;;;;;;24.39;48.32;99881.31;1660604;84;21012;-87
2021/06/09 08:37:54;;;;;;;1.67;1.07;;;;;;;24.43;47.89;99876.06;1633380;85;21039;-85
2021/06/09 08:40:22;;;;;;;3.08;1.52;;;;;;;24.46;47.41;99868.12;1608333;88;21192;-86
2021/06/09 08:42:51;;;;;;;1.12;1.10;;;;;;;24.53;47.24;99869.17;1626753;86;21102;-89
2021/06/09 08:45:17;;;;;;;1.20;1.20;;;;;;;24.51;46.43;99869.19;1633301;85;21193;-84
2021/06/09 08:47:44;;;;;;;1.80;1.17;;;;;;;24.47;46.58;99871.69;1644290;85;21061;-85
2021/06/09 08:50:13;;;;;;;1.80;1.62;;;;;;;24.44;46.61;99876.34;1600147;88;21646;-86
2021/06/09 08:52:46;;;;;;;0.98;0.98;;;;;;;24.45;46.94;99874.69;1615178;86;21432;-85
2021/06/09 08:55:18;;;;;;;1.60;1.50;;;;;;;24.46;46.75;99867.32;1627325;84;21191;-86
2021/06/09 08:57:44;;;;;;;2.67;1.85;;;;;;;24.45;46.77;99867.08;1649348;85;21339;-86
2021/06/09 09:00:17;;;;;;;1.02;1.02;;;;;;;24.46;47.02;99876.30;1678923;83;21141;-85
2021/06/09 09:02:47;;;;;;;1.32;1.22;;;;;;;24.52;47.00;99876.27;1696512;83;21647;-91
2021/06/09 09:05:14;;;;;;;2.55;1.67;;;;;;;24.57;46.39;99869.41;1703635;82;21110;-86
2021/06/09 09:07:43;;;;;;;1.02;1.02;;;;;;;24.57;45.81;99862.03;1703319;82;21100;-89
2021/06/09 09:10:14;;;;;;;0.88;0.80;;;;;;;24.54;44.24;99857.72;1699548;83;21166;-91
2021/06/09 09:12:39;;;;;;;0.95;0.85;;;;;;;24.47;45.32;99860.23;1697540;83;21058;-88
2021/06/09 09:15:08;;;;;;;0.60;0.60;;;;;;;24.47;45.00;99858.06;1693147;83;21659;-84
2021/06/09 09:17:54;;;;;;;1.45;0.95;;;;;;;24.51;44.81;99857.73;1693418;83;21068;-85
2021/06/09 09:20:25;;;;;;;4.05;2.05;;;;;;;24.58;44.77;99853.30;1692408;82;21130;-85
2021/06/09 09:22:53;;;;;;;3.47;1.00;;;;;;;24.62;44.03;99851.07;1690893;83;21078;-87
2021/06/09 09:25:21;;;;;;;2.30;1.37;;;;;;;24.68;43.77;99849.88;1687177;83;21051;-84
2021/06/09 09:28:04;;;;;;;0.82;0.82;;;;;;;24.77;43.95;99843.23;1686788;82;21583;-85
2021/06/09 09:30:35;;;;;;;0.72;0.72;;;;;;;24.74;42.96;99847.90;1687733;83;21104;-87
2021/06/09 09:33:13;;;;;;;0.60;0.60;;;;;;;24.68;43.80;99832.73;1686253;83;21059;-85
2021/06/09 09:35:43;;;;;;;1.47;0.93;;;;;;;24.67;43.94;99836.55;1681579;83;21102;-87
2021/06/09 09:38:28;;;;;;;1.62;1.07;;;;;;;24.69;43.77;99832.97;1679554;83;21629;-85
2021/06/09 09:41:15;;;;;;;1.20;0.80;;;;;;;24.69;42.99;99824.80;1692432;83;21076;-84
2021/06/09 09:43:52;;;;;;;1.25;0.55;;;;;;;24.65;43.68;99824.58;1687279;83;21051;-86
2021/06/09 09:46:30;;;;;;;0.80;0.80;;;;;;;24.67;43.77;99819.64;1684571;83;21134;-85
2021/06/09 09:49:13;;;;;;;1.20;0.78;;;;;;;24.73;42.50;99816.84;1688375;82;21145;-85
2021/06/09 09:51:55;;;;;;;1.20;0.50;;;;;;;24.65;41.91;99800.05;1698625;83;21064;-84
2021/06/09 09:54:34;;;;;;;0.70;0.70;;;;;;;24.77;41.67;99809.70;1691130;83;21036;-85
2021/06/09 09:57:05;;;;;;;0.50;0.50;;;;;;;24.81;41.41;99808.02;1689143;83;21161;-88
2021/06/09 09:59:35;;;;;;;0.53;0.53;;;;;;;24.88;42.01;99801.61;1683810;83;21112;-90
2021/06/09 10:02:16;;;;;;;1.05;0.40;;;;;;;24.94;41.06;99805.91;1687701;83;21023;-86
2021/06/09 10:04:49;;;;;;;0.72;0.72;;;;;;;25.01;39.89;99803.58;1683751;83;21027;-86
2021/06/09 10:07:11;;;;;;;0.55;0.30;;;;;;;25.06;38.72;99799.98;1683447;84;21063;-87
2021/06/09 10:09:47;;;;;;;4.37;0.70;;;;;;;25.05;39.57;99787.44;1688895;83;21039;-85
2021/06/09 10:12:17;;;;;;;0.60;0.50;;;;;;;25.09;39.20;99783.56;1683870;83;21210;-88
2021/06/09 10:14:50;;;;;;;0.88;0.33;;;;;;;25.09;39.52;99791.21;1687188;83;21551;-86
2021/06/09 10:17:24;;;;;;;3.33;0.90;;;;;;;25.12;39.22;99786.51;1694207;83;21067;-87
2021/06/09 10:19:58;;;;;;;2.27;0.50;;;;;;;25.15;38.71;99781.83;1692914;83;21189;-86
2021/06/09 10:22:31;;;;;;;0.68;0.30;;;;;;;25.21;39.14;99786.64;1690134;83;21014;-85
2021/06/09 10:25:05;;;;;;;0.75;0.47;;;;;;;25.27;38.64;99784.10;1667628;84;21059;-87
2021/06/09 10:27:51;;;;;;;0.47;0.40;;;;;;;25.33;38.36;99778.00;1668877;84;21815;-86
2021/06/09 10:30:22;;;;;;;1.07;0.68;;;;;;;25.34;37.89;99775.55;1671534;84;21032;-85
2021/06/09 10:32:58;;;;;;;4.08;0.40;;;;;;;25.34;37.86;99771.45;1679501;84;21020;-85
2021/06/09 10:35:38;;;;;;;0.53;0.53;;;;;;;25.30;36.13;99771.77;1663049;85;21109;-86
2021/06/09 10:38:06;;;;;;;1.27;0.40;;;;;;;25.26;35.96;99778.41;1642702;85;21105;-85
2021/06/09 10:40:34;;;;;;;1.85;0.28;;;;;;;25.19;35.51;99767.84;1652627;85;22352;-85
2021/06/09 10:43:07;;;;;;;0.72;0.40;;;;;;;25.22;36.47;99762.34;1649346;86;21663;-86
2021/06/09 10:45:36;;;;;;;0.88;0.37;;;;;;;25.31;36.68;99768.75;1649427;85;21039;-86
2021/06/09 10:48:05;;;;;;;0.70;0.40;;;;;;;25.42;36.78;99770.18;1660107;86;21605;-86
2021/06/09 10:50:31;;;;;;;0.65;0.65;;;;;;;25.49;36.79;99768.44;1655469;84;21116;-87
2021/06/09 10:52:57;;;;;;;0.62;0.60;;;;;;;25.52;36.97;99769.17;1675568;84;21105;-86
2021/06/09 10:55:26;;;;;;;1.20;0.90;;;;;;;25.53;37.65;99761.82;1640515;84;21205;-86
2021/06/09 10:57:52;;;;;;;0.80;0.60;;;;;;;25.56;38.66;99762.56;1669704;84;20971;-84
2021/06/09 11:00:20;;;;;;;1.02;1.02;;;;;;;25.57;38.40;99770.45;1644303;85;21137;-86
2021/06/09 11:02:50;;;;;;;3.58;0.75;;;;;;;25.53;37.36;99755.80;1620699;87;21117;-87
2021/06/09 11:05:18;;;;;;;1.10;0.90;;;;;;;25.50;38.06;99756.95;1647787;86;21134;-86
2021/06/09 11:07:47;;;;;;;1.10;0.82;;;;;;;25.49;38.26;99758.08;1643308;85;21117;-85
2021/06/09 11:10:19;;;;;;;0.85;0.85;;;;;;;25.44;38.47;99757.61;1639886;86;21582;-85
2021/06/09 11:12:49;;;;;;;4.70;1.40;;;;;;;25.33;39.17;99747.44;1641194;86;21525;-86
2021/06/09 11:15:22;;;;;;;1.25;0.98;;;;;;;25.22;39.57;99745.44;1628888;86;21598;-88
2021/06/09 11:17:57;;;;;;;3.77;1.42;;;;;;;25.15;39.63;99743.66;1636287;85;21600;-85
2021/06/09 11:20:37;;;;;;;0.90;0.90;;;;;;;25.02;40.09;99747.96;1631345;86;21081;-87
2021/06/09 11:23:10;;;;;;;5.50;1.50;;;;;;;24.92;40.65;99745.95;1622159;87;21097;-83
2021/06/09 11:25:46;;;;;;;4.60;1.47;;;;;;;24.85;41.11;99735.45;1641336;86;21071;-90
2021/06/09 11:28:20;;;;;;;1.30;1.12;;;;;;;24.80;41.87;99735.52;1644046;86;21847;-88
2021/06/09 11:30:54;;;;;;;1.20;1.20;;;;;;;24.70;42.21;99736.51;1667495;85;21600;-87
2021/06/09 11:33:49;;;;;;;1.32;1.10;;;;;;;24.67;43.33;99735.73;1652765;85;21065;-86
2021/06/09 11:36:23;;;;;;;1.02;1.00;;;;;;;24.67;43.55;99731.64;1644506;84;21098;-86
2021/06/09 11:38:59;;;;;;;5.20;1.50;;;;;;;24.66;44.45;99734.13;1653156;84;21089;-86
2021/06/09 11:41:42;;;;;;;1.98;1.72;;;;;;;24.65;45.03;99739.30;1656896;85;21072;-85
2021/06/09 11:44:30;;;;;;;1.25;1.25;;;;;;;24.67;44.91;99732.44;1686915;83;21089;-85
2021/06/09 11:47:20;;;;;;;;;;;;;;;24.65;44.58;99736.02;1619990;87;21057;-87
2021/06/09 11:49:51;;;;;;;1.65;1.55;;;;;;;24.67;44.91;99732.44;1639869;85;20160;-85
2021/06/09 11:52:19;;;;;;;1.45;1.30;;;;;;;24.67;44.88;99731.08;1643023;86;21075;-87
2021/06/09 11:54:46;;;;;;;1.42;1.40;;;;;;;24.73;44.97;99724.19;1636889;85;21051;-86